sensor_id;sensor_type;location;lat;lon;timestamp;pressure;altitude;pressure_sealevel;temperature;humidity
18795;BME280;29610;49.022;12.114;2023-06-22T00:00:41;97934.84;;;19.86;100.00
18795;BME280;29610;49.022;12.114;2023-06-22T00:03:11;97929.59;;;19.77;100.00
18795;BME280;29610;49.022;12.114;2023-06-22T00:05:39;97928.03;;;19.76;100.00
18795;BME280;29610;49.022;12.114;2023-06-22T00:08:07;97912.91;;;19.63;100.00
18795;BME280;29610;49.022;12.114;2023-06-22T00:10:36;97905.06;;;19.65;100.00
18795;BME280;29610;49.022;12.114;2023-06-22T00:13:07;97904.41;;;19.46;100.00
18795;BME280;29610;49.022;12.114;2023-06-22T00:15:37;97898.38;;;19.37;100.00
18795;BME280;29610;49.022;12.114;2023-06-22T00:18:07;97892.53;;;19.42;100.00
18795;BME280;29610;49.022;12.114;2023-06-22T00:20:36;97884.72;;;19.21;100.00
18795;BME280;29610;49.022;12.114;2023-06-22T00:23:06;97895.63;;;19.37;100.00
18795;BME280;29610;49.022;12.114;2023-06-22T00:25:36;97887.84;;;19.46;100.00
18795;BME280;29610;49.022;12.114;2023-06-22T00:28:07;97893.63;;;19.37;100.00
18795;BME280;29610;49.022;12.114;2023-06-22T00:30:35;97887.47;;;19.21;100.00
18795;BME280;29610;49.022;12.114;2023-06-22T00:33:04;97871.31;;;19.46;100.00
18795;BME280;29610;49.022;12.114;2023-06-22T00:35:35;97862.44;;;19.30;100.00
18795;BME280;29610;49.022;12.114;2023-06-22T00:38:03;97859.38;;;19.35;100.00
18795;BME280;29610;49.022;12.114;2023-06-22T00:40:33;97845.19;;;19.07;100.00
18795;BME280;29610;49.022;12.114;2023-06-22T00:43:02;97849.53;;;19.08;100.00
18795;BME280;29610;49.022;12.114;2023-06-22T00:45:33;97847.97;;;19.10;100.00
18795;BME280;29610;49.022;12.114;2023-06-22T00:48:03;97848.88;;;19.18;100.00
18795;BME280;29610;49.022;12.114;2023-06-22T00:50:33;97842.47;;;19.10;100.00
18795;BME280;29610;49.022;12.114;2023-06-22T00:53:05;97841.22;;;19.30;100.00
18795;BME280;29610;49.022;12.114;2023-06-22T00:55:37;97841.03;;;19.20;100.00
18795;BME280;29610;49.022;12.114;2023-06-22T00:58:09;97853.44;;;19.33;100.00
18795;BME280;29610;49.022;12.114;2023-06-22T01:00:40;97851.84;;;19.32;100.00
18795;BME280;29610;49.022;12.114;2023-06-22T01:03:11;97847.38;;;19.24;100.00
18795;BME280;29610;49.022;12.114;2023-06-22T01:05:40;97849.84;;;19.29;100.00
18795;BME280;29610;49.022;12.114;2023-06-22T01:08:23;97852.22;;;19.04;100.00
18795;BME280;29610;49.022;12.114;2023-06-22T01:11:00;97843.28;;;19.11;100.00
18795;BME280;29610;49.022;12.114;2023-06-22T01:13:39;97845.28;;;19.14;100.00
18795;BME280;29610;49.022;12.114;2023-06-22T01:16:18;97849.53;;;19.08;100.00
18795;BME280;29610;49.022;12.114;2023-06-22T01:18:52;97853.09;;;19.08;100.00
18795;BME280;29610;49.022;12.114;2023-06-22T01:21:28;97851.78;;;18.99;100.00
18795;BME280;29610;49.022;12.114;2023-06-22T01:24:15;97865.94;;;19.01;100.00
18795;BME280;29610;49.022;12.114;2023-06-22T01:26:59;97853.09;;;19.08;100.00
18795;BME280;29610;49.022;12.114;2023-06-22T01:29:36;97842.06;;;19.08;100.00
18795;BME280;29610;49.022;12.114;2023-06-22T01:32:07;97849.72;;;18.95;100.00
18795;BME280;29610;49.022;12.114;2023-06-22T01:34:39;97854.66;;;18.83;100.00
18795;BME280;29610;49.022;12.114;2023-06-22T01:37:09;97863.28;;;18.78;100.00
18795;BME280;29610;49.022;12.114;2023-06-22T01:39:37;97865.06;;;18.93;100.00
18795;BME280;29610;49.022;12.114;2023-06-22T01:42:06;97856.22;;;18.80;100.00
18795;BME280;29610;49.022;12.114;2023-06-22T01:44:37;97863.84;;;18.90;100.00
18795;BME280;29610;49.022;12.114;2023-06-22T01:47:09;97861.34;;;19.08;100.00
18795;BME280;29610;49.022;12.114;2023-06-22T01:49:38;97866.81;;;19.05;100.00
18795;BME280;29610;49.022;12.114;2023-06-22T01:52:07;97863.63;;;19.03;100.00
18795;BME280;29610;49.022;12.114;2023-06-22T01:54:37;97869.00;;;18.95;100.00
18795;BME280;29610;49.022;12.114;2023-06-22T01:57:06;97872.81;;;19.14;100.00
18795;BME280;29610;49.022;12.114;2023-06-22T01:59:45;97867.31;;;19.14;100.00
18795;BME280;29610;49.022;12.114;2023-06-22T02:02:20;97873.00;;;19.24;100.00
18795;BME280;29610;49.022;12.114;2023-06-22T02:04:59;97891.25;;;19.32;100.00
18795;BME280;29610;49.022;12.114;2023-06-22T02:07:34;97890.88;;;19.34;100.00
18795;BME280;29610;49.022;12.114;2023-06-22T02:10:08;97889.25;;;19.33;100.00
18795;BME280;29610;49.022;12.114;2023-06-22T02:12:42;97881.09;;;19.14;100.00
18795;BME280;29610;49.022;12.114;2023-06-22T02:15:13;97873.81;;;18.99;100.00
18795;BME280;29610;49.022;12.114;2023-06-22T02:17:43;97878.41;;;18.65;100.00
18795;BME280;29610;49.022;12.114;2023-06-22T02:20:13;97887.94;;;18.71;100.00
18795;BME280;29610;49.022;12.114;2023-06-22T02:22:42;97881.94;;;18.65;100.00
18795;BME280;29610;49.022;12.114;2023-06-22T02:25:11;97882.34;;;18.67;100.00
18795;BME280;29610;49.022;12.114;2023-06-22T02:27:40;97881.63;;;18.70;100.00
18795;BME280;29610;49.022;12.114;2023-06-22T02:30:10;97886.97;;;18.60;100.00
18795;BME280;29610;49.022;12.114;2023-06-22T02:32:40;97882.50;;;18.52;100.00
18795;BME280;29610;49.022;12.114;2023-06-22T02:35:10;97878.16;;;18.51;100.00
18795;BME280;29610;49.022;12.114;2023-06-22T02:37:39;97871.59;;;18.59;100.00
18795;BME280;29610;49.022;12.114;2023-06-22T02:40:10;97860.50;;;18.52;100.00
18795;BME280;29610;49.022;12.114;2023-06-22T02:42:39;97863.53;;;18.47;100.00
18795;BME280;29610;49.022;12.114;2023-06-22T02:45:09;97860.59;;;18.36;100.00
18795;BME280;29610;49.022;12.114;2023-06-22T02:47:38;97856.69;;;18.37;100.00
18795;BME280;29610;49.022;12.114;2023-06-22T02:50:09;97853.38;;;18.28;100.00
18795;BME280;29610;49.022;12.114;2023-06-22T02:52:37;97850.16;;;18.45;100.00
18795;BME280;29610;49.022;12.114;2023-06-22T02:55:08;97852.53;;;18.47;100.00
18795;BME280;29610;49.022;12.114;2023-06-22T02:57:36;97856.34;;;18.39;100.00
18795;BME280;29610;49.022;12.114;2023-06-22T03:00:13;97851.00;;;18.27;100.00
18795;BME280;29610;49.022;12.114;2023-06-22T03:02:47;97858.53;;;18.30;100.00
18795;BME280;29610;49.022;12.114;2023-06-22T03:05:18;97858.56;;;18.11;100.00
18795;BME280;29610;49.022;12.114;2023-06-22T03:07:48;97860.59;;;18.14;100.00
18795;BME280;29610;49.022;12.114;2023-06-22T03:10:16;97850.81;;;18.16;100.00
18795;BME280;29610;49.022;12.114;2023-06-22T03:12:46;97855.03;;;18.10;100.00
18795;BME280;29610;49.022;12.114;2023-06-22T03:15:15;97856.56;;;18.08;100.00
18795;BME280;29610;49.022;12.114;2023-06-22T03:17:50;97859.06;;;18.16;100.00
18795;BME280;29610;49.022;12.114;2023-06-22T03:20:20;97860.09;;;18.08;100.00
18795;BME280;29610;49.022;12.114;2023-06-22T03:22:49;97858.16;;;18.31;100.00
18795;BME280;29610;49.022;12.114;2023-06-22T03:25:17;97848.78;;;18.13;100.00
18795;BME280;29610;49.022;12.114;2023-06-22T03:27:48;97843.47;;;18.01;100.00
18795;BME280;29610;49.022;12.114;2023-06-22T03:30:17;97846.03;;;18.13;100.00
18795;BME280;29610;49.022;12.114;2023-06-22T03:32:46;97847.81;;;18.02;100.00
18795;BME280;29610;49.022;12.114;2023-06-22T03:35:15;97850.19;;;18.26;100.00
18795;BME280;29610;49.022;12.114;2023-06-22T03:37:45;97852.06;;;18.22;100.00
18795;BME280;29610;49.022;12.114;2023-06-22T03:40:13;97852.53;;;18.47;100.00
18795;BME280;29610;49.022;12.114;2023-06-22T03:42:42;97850.06;;;18.64;100.00
18795;BME280;29610;49.022;12.114;2023-06-22T03:45:10;97847.16;;;18.80;100.00
18795;BME280;29610;49.022;12.114;2023-06-22T03:47:41;97848.31;;;18.79;100.00
18795;BME280;29610;49.022;12.114;2023-06-22T03:50:10;97846.03;;;18.84;100.00
18795;BME280;29610;49.022;12.114;2023-06-22T03:52:38;97853.34;;;19.00;100.00
18795;BME280;29610;49.022;12.114;2023-06-22T03:55:08;97853.72;;;18.98;100.00
18795;BME280;29610;49.022;12.114;2023-06-22T03:57:37;97852.22;;;19.04;100.00
18795;BME280;29610;49.022;12.114;2023-06-22T04:00:07;97857.72;;;19.04;100.00
18795;BME280;29610;49.022;12.114;2023-06-22T04:02:40;97860.53;;;19.08;100.00
18795;BME280;29610;49.022;12.114;2023-06-22T04:05:09;97868.16;;;19.18;100.00
18795;BME280;29610;49.022;12.114;2023-06-22T04:07:38;97865.16;;;19.00;100.00
18795;BME280;29610;49.022;12.114;2023-06-22T04:10:09;97867.50;;;18.98;100.00
18795;BME280;29610;49.022;12.114;2023-06-22T04:12:53;97865.44;;;18.91;100.00
18795;BME280;29610;49.022;12.114;2023-06-22T04:15:21;97878.56;;;18.75;100.00
18795;BME280;29610;49.022;12.114;2023-06-22T04:17:50;97884.00;;;18.49;100.00
18795;BME280;29610;49.022;12.114;2023-06-22T04:20:19;97874.28;;;18.33;100.00
18795;BME280;29610;49.022;12.114;2023-06-22T04:22:49;97881.22;;;18.46;100.00
18795;BME280;29610;49.022;12.114;2023-06-22T04:25:20;97887.19;;;18.74;100.00
18795;BME280;29610;49.022;12.114;2023-06-22T04:27:49;97891.00;;;18.92;100.00
18795;BME280;29610;49.022;12.114;2023-06-22T04:30:18;97888.72;;;18.98;100.00
18795;BME280;29610;49.022;12.114;2023-06-22T04:32:46;97887.84;;;18.90;100.00
18795;BME280;29610;49.022;12.114;2023-06-22T04:35:25;97886.72;;;19.21;100.00
18795;BME280;29610;49.022;12.114;2023-06-22T04:37:59;97885.34;;;19.08;100.00
18795;BME280;29610;49.022;12.114;2023-06-22T04:40:29;97879.34;;;19.28;100.00
18795;BME280;29610;49.022;12.114;2023-06-22T04:42:58;97881.38;;;19.05;100.00
18795;BME280;29610;49.022;12.114;2023-06-22T04:45:29;97877.22;;;19.18;100.00
18795;BME280;29610;49.022;12.114;2023-06-22T04:47:58;97864.94;;;19.38;100.00
18795;BME280;29610;49.022;12.114;2023-06-22T04:50:26;97866.09;;;19.37;100.00
18795;BME280;29610;49.022;12.114;2023-06-22T04:52:55;97851.91;;;18.83;100.00
18795;BME280;29610;49.022;12.114;2023-06-22T04:55:24;97857.72;;;18.74;100.00
18795;BME280;29610;49.022;12.114;2023-06-22T04:57:54;97860.09;;;18.76;100.00
18795;BME280;29610;49.022;12.114;2023-06-22T05:00:22;97861.50;;;18.92;100.00
18795;BME280;29610;49.022;12.114;2023-06-22T05:02:51;97858.75;;;18.92;100.00
18795;BME280;29610;49.022;12.114;2023-06-22T05:05:30;97858.78;;;19.22;100.00
18795;BME280;29610;49.022;12.114;2023-06-22T05:08:01;97857.44;;;19.39;100.00
18795;BME280;29610;49.022;12.114;2023-06-22T05:10:29;97863.25;;;19.04;100.00
18795;BME280;29610;49.022;12.114;2023-06-22T05:13:00;97853.16;;;19.15;100.00
18795;BME280;29610;49.022;12.114;2023-06-22T05:15:28;97855.16;;;19.15;100.00
18795;BME280;29610;49.022;12.114;2023-06-22T05:18:00;97838.97;;;19.13;100.00
18795;BME280;29610;49.022;12.114;2023-06-22T05:20:32;97843.31;;;19.40;100.00
18795;BME280;29610;49.022;12.114;2023-06-22T05:23:03;97841.00;;;19.79;100.00
18795;BME280;29610;49.022;12.114;2023-06-22T05:25:32;97841.13;;;19.89;100.00
18795;BME280;29610;49.022;12.114;2023-06-22T05:28:02;97835.63;;;19.93;100.00
18795;BME280;29610;49.022;12.114;2023-06-22T05:30:33;97836.38;;;20.23;100.00
18795;BME280;29610;49.022;12.114;2023-06-22T05:33:02;97833.97;;;20.21;100.00
18795;BME280;29610;49.022;12.114;2023-06-22T05:35:31;97824.94;;;20.24;100.00
18795;BME280;29610;49.022;12.114;2023-06-22T05:37:59;97828.59;;;19.99;100.00
18795;BME280;29610;49.022;12.114;2023-06-22T05:40:28;97819.97;;;20.41;100.00
18795;BME280;29610;49.022;12.114;2023-06-22T05:42:56;97825.66;;;20.65;100.00
18795;BME280;29610;49.022;12.114;2023-06-22T05:45:26;97822.78;;;21.05;100.00
18795;BME280;29610;49.022;12.114;2023-06-22T05:47:55;97839.19;;;21.49;100.00
18795;BME280;29610;49.022;12.114;2023-06-22T05:50:23;97831.44;;;21.79;100.00
18795;BME280;29610;49.022;12.114;2023-06-22T05:52:52;97820.84;;;22.13;100.00
18795;BME280;29610;49.022;12.114;2023-06-22T05:55:20;97820.03;;;22.44;100.00
18795;BME280;29610;49.022;12.114;2023-06-22T05:57:49;97823.22;;;22.42;100.00
18795;BME280;29610;49.022;12.114;2023-06-22T06:00:18;97812.56;;;22.55;100.00
18795;BME280;29610;49.022;12.114;2023-06-22T06:02:49;97820.06;;;22.61;100.00
18795;BME280;29610;49.022;12.114;2023-06-22T06:05:17;97805.44;;;22.54;100.00
18795;BME280;29610;49.022;12.114;2023-06-22T06:07:46;97795.53;;;22.81;100.00
18795;BME280;29610;49.022;12.114;2023-06-22T06:10:15;97799.50;;;22.45;100.00
18795;BME280;29610;49.022;12.114;2023-06-22T06:12:43;97791.19;;;22.20;100.00
18795;BME280;29610;49.022;12.114;2023-06-22T06:15:12;97793.16;;;22.27;100.00
18795;BME280;29610;49.022;12.114;2023-06-22T06:17:47;97795.53;;;22.32;100.00
18795;BME280;29610;49.022;12.114;2023-06-22T06:20:21;97796.31;;;22.36;100.00
18795;BME280;29610;49.022;12.114;2023-06-22T06:22:50;97789.97;;;22.84;100.00
18795;BME280;29610;49.022;12.114;2023-06-22T06:25:18;97794.72;;;22.45;100.00
18795;BME280;29610;49.022;12.114;2023-06-22T06:27:51;97792.38;;;22.68;100.00
18795;BME280;29610;49.022;12.114;2023-06-22T06:30:22;97785.59;;;22.94;100.00
18795;BME280;29610;49.022;12.114;2023-06-22T06:32:52;97786.66;;;23.39;100.00
18795;BME280;29610;49.022;12.114;2023-06-22T06:35:21;97772.81;;;23.39;100.00
18795;BME280;29610;49.022;12.114;2023-06-22T06:37:50;97780.38;;;23.31;100.00
18795;BME280;29610;49.022;12.114;2023-06-22T06:40:19;97779.53;;;23.38;100.00
18795;BME280;29610;49.022;12.114;2023-06-22T06:42:48;97782.34;;;23.34;100.00
18795;BME280;29610;49.022;12.114;2023-06-22T06:45:20;97766.31;;;23.66;100.00
18795;BME280;29610;49.022;12.114;2023-06-22T06:47:52;97765.75;;;23.99;100.00
18795;BME280;29610;49.022;12.114;2023-06-22T06:50:21;97754.78;;;24.33;100.00
18795;BME280;29610;49.022;12.114;2023-06-22T06:52:49;97762.81;;;24.65;100.00
18795;BME280;29610;49.022;12.114;2023-06-22T06:55:18;97763.53;;;24.76;100.00
18795;BME280;29610;49.022;12.114;2023-06-22T06:57:47;97759.06;;;24.41;100.00
18795;BME280;29610;49.022;12.114;2023-06-22T07:00:18;97766.56;;;24.44;100.00
18795;BME280;29610;49.022;12.114;2023-06-22T07:02:47;97759.94;;;24.75;100.00
18795;BME280;29610;49.022;12.114;2023-06-22T07:05:17;97753.50;;;25.19;100.00
18795;BME280;29610;49.022;12.114;2023-06-22T07:07:46;97761.16;;;25.45;100.00
18795;BME280;29610;49.022;12.114;2023-06-22T07:10:15;97748.38;;;25.17;100.00
18795;BME280;29610;49.022;12.114;2023-06-22T07:12:43;97752.88;;;25.41;100.00
18795;BME280;29610;49.022;12.114;2023-06-22T07:15:12;97743.56;;;25.81;100.00
18795;BME280;29610;49.022;12.114;2023-06-22T07:17:40;97735.59;;;26.10;100.00
18795;BME280;29610;49.022;12.114;2023-06-22T07:20:10;97728.59;;;26.48;100.00
18795;BME280;29610;49.022;12.114;2023-06-22T07:22:43;97728.31;;;26.39;100.00
18795;BME280;29610;49.022;12.114;2023-06-22T07:25:12;97727.97;;;26.14;100.00
18795;BME280;29610;49.022;12.114;2023-06-22T07:27:57;97733.16;;;26.81;100.00
18795;BME280;29610;49.022;12.114;2023-06-22T07:30:26;97724.69;;;26.88;100.00
18795;BME280;29610;49.022;12.114;2023-06-22T07:32:56;97729.09;;;27.29;100.00
18795;BME280;29610;49.022;12.114;2023-06-22T07:35:25;97730.75;;;27.97;100.00
18795;BME280;29610;49.022;12.114;2023-06-22T07:37:55;97732.44;;;28.43;100.00
18795;BME280;29610;49.022;12.114;2023-06-22T07:40:23;97722.34;;;29.06;100.00
18795;BME280;29610;49.022;12.114;2023-06-22T07:42:52;97731.59;;;29.19;100.00
18795;BME280;29610;49.022;12.114;2023-06-22T07:45:20;97725.00;;;29.13;100.00
18795;BME280;29610;49.022;12.114;2023-06-22T07:47:50;97715.09;;;29.37;100.00
18795;BME280;29610;49.022;12.114;2023-06-22T07:50:18;97716.53;;;29.01;100.00
18795;BME280;29610;49.022;12.114;2023-06-22T07:52:47;97718.38;;;29.61;100.00
18795;BME280;29610;49.022;12.114;2023-06-22T07:55:17;97710.81;;;29.86;100.00
18795;BME280;29610;49.022;12.114;2023-06-22T07:57:48;97706.34;;;29.35;100.00
18795;BME280;29610;49.022;12.114;2023-06-22T08:00:20;97705.66;;;29.31;100.00
18795;BME280;29610;49.022;12.114;2023-06-22T08:02:48;97703.00;;;29.40;100.00
18795;BME280;29610;49.022;12.114;2023-06-22T08:05:17;97705.66;;;29.72;100.00
18795;BME280;29610;49.022;12.114;2023-06-22T08:07:49;97710.81;;;29.86;100.00
18795;BME280;29610;49.022;12.114;2023-06-22T08:10:19;97709.28;;;30.57;100.00
18795;BME280;29610;49.022;12.114;2023-06-22T08:12:48;97698.59;;;31.42;100.00
18795;BME280;29610;49.022;12.114;2023-06-22T08:15:17;97704.34;;;31.91;100.00
18795;BME280;29610;49.022;12.114;2023-06-22T08:17:45;97697.84;;;32.42;100.00
18795;BME280;29610;49.022;12.114;2023-06-22T08:20:14;97693.63;;;32.56;100.00
18795;BME280;29610;49.022;12.114;2023-06-22T08:22:43;97695.19;;;32.48;100.00
18795;BME280;29610;49.022;12.114;2023-06-22T08:25:12;97689.41;;;32.88;100.00
18795;BME280;29610;49.022;12.114;2023-06-22T08:27:46;97694.25;;;33.32;100.00
18795;BME280;29610;49.022;12.114;2023-06-22T08:30:16;97688.66;;;32.96;100.00
18795;BME280;29610;49.022;12.114;2023-06-22T08:32:45;97689.13;;;33.40;100.00
18795;BME280;29610;49.022;12.114;2023-06-22T08:35:13;97687.41;;;33.84;100.00
18795;BME280;29610;49.022;12.114;2023-06-22T08:37:42;97687.75;;;32.90;100.00
18795;BME280;29610;49.022;12.114;2023-06-22T08:40:12;97682.81;;;33.54;100.00
18795;BME280;29610;49.022;12.114;2023-06-22T08:42:41;97681.59;;;33.28;100.00
18795;BME280;29610;49.022;12.114;2023-06-22T08:45:12;97681.91;;;33.30;100.00
18795;BME280;29610;49.022;12.114;2023-06-22T08:47:41;97675.91;;;33.55;100.00
18795;BME280;29610;49.022;12.114;2023-06-22T08:50:11;97675.22;;;33.78;100.00
18795;BME280;29610;49.022;12.114;2023-06-22T08:52:40;97675.34;;;34.49;99.26
18795;BME280;29610;49.022;12.114;2023-06-22T08:55:10;97685.59;;;35.22;89.03
18795;BME280;29610;49.022;12.114;2023-06-22T08:57:39;97673.44;;;35.75;78.25
18795;BME280;29610;49.022;12.114;2023-06-22T09:00:11;97680.94;;;35.92;73.01
18795;BME280;29610;49.022;12.114;2023-06-22T09:02:47;97679.47;;;35.24;78.81
18795;BME280;29610;49.022;12.114;2023-06-22T09:05:17;97687.50;;;34.31;88.49
18795;BME280;29610;49.022;12.114;2023-06-22T09:07:45;97677.25;;;34.66;80.74
18795;BME280;29610;49.022;12.114;2023-06-22T09:10:14;97669.16;;;34.83;77.39
18795;BME280;29610;49.022;12.114;2023-06-22T09:12:43;97675.72;;;34.09;77.33
18795;BME280;29610;49.022;12.114;2023-06-22T09:15:13;97673.69;;;34.80;81.50
18795;BME280;29610;49.022;12.114;2023-06-22T09:17:44;97684.13;;;35.27;83.45
18795;BME280;29610;49.022;12.114;2023-06-22T09:20:15;97675.50;;;35.45;79.92
18795;BME280;29610;49.022;12.114;2023-06-22T09:22:43;97679.81;;;35.41;80.13
18795;BME280;29610;49.022;12.114;2023-06-22T09:25:12;97671.19;;;36.08;72.80
18795;BME280;29610;49.022;12.114;2023-06-22T09:27:41;97664.75;;;36.27;74.92
18795;BME280;29610;49.022;12.114;2023-06-22T09:30:11;97655.53;;;36.47;65.20
18795;BME280;29610;49.022;12.114;2023-06-22T09:32:40;97654.69;;;36.61;70.75
18795;BME280;29610;49.022;12.114;2023-06-22T09:35:09;97655.81;;;36.69;68.25
18795;BME280;29610;49.022;12.114;2023-06-22T09:37:40;97665.06;;;35.51;79.95
18795;BME280;29610;49.022;12.114;2023-06-22T09:40:09;97663.66;;;35.17;83.45
18795;BME280;29610;49.022;12.114;2023-06-22T09:42:42;97663.97;;;35.19;77.05
18795;BME280;29610;49.022;12.114;2023-06-22T09:45:12;97661.81;;;35.00;84.40
18795;BME280;29610;49.022;12.114;2023-06-22T09:47:40;97659.00;;;34.76;76.83
18795;BME280;29610;49.022;12.114;2023-06-22T09:50:10;97654.31;;;34.97;85.40
18795;BME280;29610;49.022;12.114;2023-06-22T09:52:39;97649.84;;;35.34;96.33
18795;BME280;29610;49.022;12.114;2023-06-22T09:55:15;97654.47;;;34.55;94.36
18795;BME280;29610;49.022;12.114;2023-06-22T09:57:44;97639.06;;;34.33;91.87
18795;BME280;29610;49.022;12.114;2023-06-22T10:00:16;97636.50;;;34.20;88.48
18795;BME280;29610;49.022;12.114;2023-06-22T10:02:46;97643.06;;;33.52;100.00
18795;BME280;29610;49.022;12.114;2023-06-22T10:05:15;97640.72;;;34.48;92.89
18795;BME280;29610;49.022;12.114;2023-06-22T10:07:44;97647.72;;;34.29;92.18
18795;BME280;29610;49.022;12.114;2023-06-22T10:10:13;97645.38;;;34.75;96.73
18795;BME280;29610;49.022;12.114;2023-06-22T10:12:46;97633.47;;;35.96;75.20
18795;BME280;29610;49.022;12.114;2023-06-22T10:15:16;97632.72;;;36.16;72.90
18795;BME280;29610;49.022;12.114;2023-06-22T10:17:45;97631.81;;;37.30;68.37
18795;BME280;29610;49.022;12.114;2023-06-22T10:20:14;97630.41;;;36.95;68.49
18795;BME280;29610;49.022;12.114;2023-06-22T10:22:45;97627.28;;;36.32;78.73
18795;BME280;29610;49.022;12.114;2023-06-22T10:25:14;97624.97;;;35.82;70.15
18795;BME280;29610;49.022;12.114;2023-06-22T10:27:43;97622.31;;;36.07;73.79
18795;BME280;29610;49.022;12.114;2023-06-22T10:30:13;97617.50;;;35.35;76.41
18795;BME280;29610;49.022;12.114;2023-06-22T10:32:43;97612.50;;;35.88;80.06
18795;BME280;29610;49.022;12.114;2023-06-22T10:35:12;97611.81;;;35.79;75.18
18795;BME280;29610;49.022;12.114;2023-06-22T10:37:43;97607.16;;;35.76;76.16
18795;BME280;29610;49.022;12.114;2023-06-22T10:40:13;97611.94;;;36.19;82.54
18795;BME280;29610;49.022;12.114;2023-06-22T10:42:43;97605.38;;;36.13;78.69
18795;BME280;29610;49.022;12.114;2023-06-22T10:45:12;97599.47;;;36.11;73.68
18795;BME280;29610;49.022;12.114;2023-06-22T10:47:42;97593.16;;;37.27;67.31
18795;BME280;29610;49.022;12.114;2023-06-22T10:50:11;97594.56;;;38.11;62.80
18795;BME280;29610;49.022;12.114;2023-06-22T10:52:40;97586.66;;;36.75;65.13
18795;BME280;29610;49.022;12.114;2023-06-22T10:55:10;97582.91;;;36.84;66.40
18795;BME280;29610;49.022;12.114;2023-06-22T10:57:38;97579.47;;;36.34;63.96
18795;BME280;29610;49.022;12.114;2023-06-22T11:00:12;97577.94;;;35.99;67.55
18795;BME280;29610;49.022;12.114;2023-06-22T11:02:42;97568.00;;;36.23;74.28
18795;BME280;29610;49.022;12.114;2023-06-22T11:05:12;97559.94;;;36.56;67.47
18795;BME280;29610;49.022;12.114;2023-06-22T11:07:42;97566.59;;;37.61;70.06
18795;BME280;29610;49.022;12.114;2023-06-22T11:10:13;97566.47;;;38.13;61.38
18795;BME280;29610;49.022;12.114;2023-06-22T11:12:42;97564.94;;;38.76;60.07
18795;BME280;29610;49.022;12.114;2023-06-22T11:15:10;97558.44;;;38.70;57.73
18795;BME280;29610;49.022;12.114;2023-06-22T11:17:39;97547.00;;;36.75;58.01
18795;BME280;29610;49.022;12.114;2023-06-22T11:20:11;97540.25;;;37.50;66.46
18795;BME280;29610;49.022;12.114;2023-06-22T11:22:40;97540.66;;;37.68;56.42
18795;BME280;29610;49.022;12.114;2023-06-22T11:25:09;97534.66;;;38.62;52.26
18795;BME280;29610;49.022;12.114;2023-06-22T11:27:39;97535.81;;;39.14;55.62
18795;BME280;29610;49.022;12.114;2023-06-22T11:30:09;97525.22;;;39.36;56.46
18795;BME280;29610;49.022;12.114;2023-06-22T11:32:37;97531.94;;;39.22;51.52
18795;BME280;29610;49.022;12.114;2023-06-22T11:35:08;97527.44;;;38.61;57.86
18795;BME280;29610;49.022;12.114;2023-06-22T11:37:37;97529.03;;;38.78;54.78
18795;BME280;29610;49.022;12.114;2023-06-22T11:40:07;97515.94;;;39.14;47.48
18795;BME280;29610;49.022;12.114;2023-06-22T11:42:37;97521.09;;;37.39;57.33
18795;BME280;29610;49.022;12.114;2023-06-22T11:45:07;97516.50;;;37.47;57.78
18795;BME280;29610;49.022;12.114;2023-06-22T11:47:36;97524.44;;;37.69;57.41
18795;BME280;29610;49.022;12.114;2023-06-22T11:50:06;97518.59;;;37.83;54.63
18795;BME280;29610;49.022;12.114;2023-06-22T11:52:36;97513.78;;;38.00;52.71
18795;BME280;29610;49.022;12.114;2023-06-22T11:55:06;97511.13;;;38.45;53.63
18795;BME280;29610;49.022;12.114;2023-06-22T11:57:38;97511.28;;;39.55;54.08
18795;BME280;29610;49.022;12.114;2023-06-22T12:00:08;97505.25;;;39.97;48.34
18795;BME280;29610;49.022;12.114;2023-06-22T12:02:44;97508.84;;;40.03;50.56
18795;BME280;29610;49.022;12.114;2023-06-22T12:05:13;97499.06;;;38.66;53.04
18795;BME280;29610;49.022;12.114;2023-06-22T12:07:43;97502.19;;;39.73;56.22
18795;BME280;29610;49.022;12.114;2023-06-22T12:10:12;97490.84;;;40.41;52.68
18795;BME280;29610;49.022;12.114;2023-06-22T12:12:41;97484.56;;;40.48;52.21
18795;BME280;29610;49.022;12.114;2023-06-22T12:15:10;97505.31;;;39.14;53.75
18795;BME280;29610;49.022;12.114;2023-06-22T12:17:40;97496.69;;;37.89;62.86
18795;BME280;29610;49.022;12.114;2023-06-22T12:20:10;97498.25;;;37.54;61.08
18795;BME280;29610;49.022;12.114;2023-06-22T12:22:39;97492.88;;;38.73;57.59
18795;BME280;29610;49.022;12.114;2023-06-22T12:25:09;97486.66;;;37.21;63.97
18795;BME280;29610;49.022;12.114;2023-06-22T12:27:38;97486.16;;;36.91;63.85
18795;BME280;29610;49.022;12.114;2023-06-22T12:30:09;97492.63;;;37.59;65.89
18795;BME280;29610;49.022;12.114;2023-06-22T12:32:38;97485.00;;;38.19;64.20
18795;BME280;29610;49.022;12.114;2023-06-22T12:35:07;97476.84;;;37.95;62.65
18795;BME280;29610;49.022;12.114;2023-06-22T12:37:41;97470.84;;;38.35;61.39
18795;BME280;29610;49.022;12.114;2023-06-22T12:40:12;97471.97;;;37.53;69.16
18795;BME280;29610;49.022;12.114;2023-06-22T12:42:41;97470.03;;;36.46;68.10
18795;BME280;29610;49.022;12.114;2023-06-22T12:45:10;97475.44;;;37.32;80.63
18795;BME280;29610;49.022;12.114;2023-06-22T12:47:38;97473.47;;;37.43;76.70
18795;BME280;29610;49.022;12.114;2023-06-22T12:50:08;97475.38;;;36.95;68.71
18795;BME280;29610;49.022;12.114;2023-06-22T12:52:37;97465.88;;;38.14;66.24
18795;BME280;29610;49.022;12.114;2023-06-22T12:55:09;97459.75;;;38.43;59.45
18795;BME280;29610;49.022;12.114;2023-06-22T12:57:39;97467.50;;;38.48;57.96